sensor_id;sensor_type;location;lat;lon;timestamp;pressure;altitude;pressure_sealevel;temperature;humidity
46382;BME280;66809;52.974;-2.514;2023-11-21T00:01:40;1009.7837018275659;;;8.055805786247202;48.604736852223745
46382;BME280;66809;52.974;-2.514;2023-11-21T00:03:40;1009.8126964442142;;;8.052741155350338;48.619649793873954
46382;BME280;66809;52.974;-2.514;2023-11-21T00:05:41;1009.8419246994761;;;8.034493349323826;48.641359940372055
46382;BME280;66809;52.974;-2.514;2023-11-21T00:07:41;1009.8704657703821;;;8.026267930187938;48.652065877633156
46382;BME280;66809;52.974;-2.514;2023-11-21T00:09:41;1009.8976999640929;;;8.025360643350046;48.662464848208145
46382;BME280;66809;52.974;-2.514;2023-11-21T00:11:41;1009.9248999492876;;;7.999561531738882;48.681411980044565
46382;BME280;66809;52.974;-2.514;2023-11-21T00:13:40;1009.9517849438583;;;7.972584193984767;48.71080802944765
46382;BME280;66809;52.974;-2.514;2023-11-21T00:15:40;1009.9781747989779;;;7.948209496591332;48.74329072094431
46382;BME280;66809;52.974;-2.514;2023-11-21T00:17:41;1010.0033966281561;;;7.9247244933532075;48.78713104676748
46382;BME280;66809;52.974;-2.514;2023-11-21T00:19:41;1010.0294877230077;;;7.903493114089465;48.830576620101084
46382;BME280;66809;52.974;-2.514;2023-11-21T00:21:40;1010.0575617149012;;;7.879438751737459;48.8682287964144
46382;BME280;66809;52.974;-2.514;2023-11-21T00:23:41;1010.08690910011;;;7.8538962332551545;48.909825942049636
46382;BME280;66809;52.974;-2.514;2023-11-21T00:25:40;1010.1154392835864;;;7.817908449347716;48.960395429150964
46382;BME280;66809;52.974;-2.514;2023-11-21T00:27:40;1010.1454571143855;;;7.775814468788295;49.02172665982235
46382;BME280;66809;52.974;-2.514;2023-11-21T00:29:40;1010.1783799056509;;;7.739428321509563;49.07318947001677
46382;BME280;66809;52.974;-2.514;2023-11-21T00:31:40;1010.210845495336;;;7.7066866330450745;49.12182041677558
46382;BME280;66809;52.974;-2.514;2023-11-21T00:33:41;1010.2428634572908;;;7.682041287894632;49.16018751687454
46382;BME280;66809;52.974;-2.514;2023-11-21T00:35:40;1010.2744567466815;;;7.65635520457796;49.19378371219273
46382;BME280;66809;52.974;-2.514;2023-11-21T00:37:40;1010.3067219361641;;;7.620145451146598;49.23108590764943
46382;BME280;66809;52.974;-2.514;2023-11-21T00:39:41;1010.3402893399133;;;7.581471035495361;49.26553853792182
46382;BME280;66809;52.974;-2.514;2023-11-21T00:41:40;1010.3726696572902;;;7.541545830859489;49.30106611331836
46382;BME280;66809;52.974;-2.514;2023-11-21T00:43:40;1010.4068763640975;;;7.511826903575172;49.333453736344616
46382;BME280;66809;52.974;-2.514;2023-11-21T00:45:40;1010.4415364634954;;;7.463147088426969;49.37923665128285
46382;BME280;66809;52.974;-2.514;2023-11-21T00:47:40;1010.4755732719257;;;7.432555492567251;49.41588621346635
46382;BME280;66809;52.974;-2.514;2023-11-21T00:49:41;1010.5094259108342;;;7.403569680025032;49.45657436284065
46382;BME280;66809;52.974;-2.514;2023-11-21T00:51:41;1010.541696566647;;;7.357863334492148;49.503304910863875
46382;BME280;66809;52.974;-2.514;2023-11-21T00:53:40;1010.5734966775625;;;7.313065557171129;49.547527998878124
46382;BME280;66809;52.974;-2.514;2023-11-21T00:55:40;1010.6051885082995;;;7.254286219755763;49.605110286740434
46382;BME280;66809;52.974;-2.514;2023-11-21T00:57:40;1010.6366169471385;;;7.191759783613989;49.65669643226476
46382;BME280;66809;52.974;-2.514;2023-11-21T00:59:40;1010.6677344627892;;;7.1448269827010105;49.69773222860748
46382;BME280;66809;52.974;-2.514;2023-11-21T01:01:41;1010.6987167659415;;;7.097086430698314;49.726829916591555
46382;BME280;66809;52.974;-2.514;2023-11-21T01:03:40;1010.729345033391;;;7.042473984306226;49.7509570239404
46382;BME280;66809;52.974;-2.514;2023-11-21T01:05:40;1010.7592718845218;;;7.00513479628579;49.768274875815
46382;BME280;66809;52.974;-2.514;2023-11-21T01:07:40;1010.7881197113225;;;6.972107797124311;49.79115333500155
46382;BME280;66809;52.974;-2.514;2023-11-21T01:09:40;1010.8188240940999;;;6.921468329228303;49.80900698342156
46382;BME280;66809;52.974;-2.514;2023-11-21T01:11:40;1010.8508667265512;;;6.889974924515511;49.82759073769056
46382;BME280;66809;52.974;-2.514;2023-11-21T01:13:40;1010.8854877306159;;;6.85477822470665;49.84289004040224
46382;BME280;66809;52.974;-2.514;2023-11-21T01:15:40;1010.9207019263681;;;6.821330992709089;49.848570826110944
46382;BME280;66809;52.974;-2.514;2023-11-21T01:17:41;1010.9582402417029;;;6.792661430283127;49.846448850681845
46382;BME280;66809;52.974;-2.514;2023-11-21T01:19:40;1010.9973559643845;;;6.772713927122596;49.838353889865466
46382;BME280;66809;52.974;-2.514;2023-11-21T01:21:40;1011.0358263292253;;;6.742113846119358;49.821230667927814
46382;BME280;66809;52.974;-2.514;2023-11-21T01:23:41;1011.0758759495242;;;6.728258741807777;49.79547619605992
46382;BME280;66809;52.974;-2.514;2023-11-21T01:25:40;1011.1173299669819;;;6.714571476114287;49.750336742591735
46382;BME280;66809;52.974;-2.514;2023-11-21T01:27:41;1011.1585910469337;;;6.706244540905611;49.683710619827
46382;BME280;66809;52.974;-2.514;2023-11-21T01:29:41;1011.1980312334939;;;6.692692502314645;49.60297254186875
46382;BME280;66809;52.974;-2.514;2023-11-21T01:31:40;1011.2388803665962;;;6.694076897159706;49.51758707400193
46382;BME280;66809;52.974;-2.514;2023-11-21T01:33:40;1011.2789749378642;;;6.687440579267795;49.42916175179974
46382;BME280;66809;52.974;-2.514;2023-11-21T01:35:41;1011.3188120898127;;;6.685355043062818;49.339656066649496
46382;BME280;66809;52.974;-2.514;2023-11-21T01:37:40;1011.3581685689954;;;6.67772623412576;49.247112682720385
46382;BME280;66809;52.974;-2.514;2023-11-21T01:39:40;1011.3936345034194;;;6.674356042663366;49.14468063392171
46382;BME280;66809;52.974;-2.514;2023-11-21T01:41:41;1011.4289558738559;;;6.66752621411531;49.03354131482022
46382;BME280;66809;52.974;-2.514;2023-11-21T01:43:41;1011.4632344819762;;;6.66347766082954;48.929649679285426
46382;BME280;66809;52.974;-2.514;2023-11-21T01:45:40;1011.4964775759338;;;6.680559517233108;48.81271814328904
46382;BME280;66809;52.974;-2.514;2023-11-21T01:47:41;1011.5304857728394;;;6.681140038222877;48.69954641805545
46382;BME280;66809;52.974;-2.514;2023-11-21T01:49:43;1011.5642064510919;;;6.6792745623460155;48.57007962719206
46382;BME280;66809;52.974;-2.514;2023-11-21T01:51:41;1011.6003593317661;;;6.697902036359381;48.42722171082606
46382;BME280;66809;52.974;-2.514;2023-11-21T01:53:40;1011.6371944971296;;;6.734163949531302;48.28019721332398
46382;BME280;66809;52.974;-2.514;2023-11-21T01:55:41;1011.674099716755;;;6.759427615478782;48.12475025498345
46382;BME280;66809;52.974;-2.514;2023-11-21T01:57:40;1011.7124475457947;;;6.787121226469569;47.96833835155353
46382;BME280;66809;52.974;-2.514;2023-11-21T01:59:41;1011.7522820965529;;;6.804161487300124;47.8124290581721
46382;BME280;66809;52.974;-2.514;2023-11-21T02:01:41;1011.7894262915328;;;6.804303976210374;47.66714467440481
46382;BME280;66809;52.974;-2.514;2023-11-21T02:03:41;1011.8244500198279;;;6.809614659442676;47.537436808209435
46382;BME280;66809;52.974;-2.514;2023-11-21T02:05:40;1011.858729181566;;;6.804487390976602;47.41492360609722
46382;BME280;66809;52.974;-2.514;2023-11-21T02:07:41;1011.8922440045675;;;6.7954376188774575;47.298245341578436
46382;BME280;66809;52.974;-2.514;2023-11-21T02:09:40;1011.9240509922918;;;6.799319567633165;47.19303507977471
46382;BME280;66809;52.974;-2.514;2023-11-21T02:11:41;1011.9521438121535;;;6.800302568567428;47.08069441547835
46382;BME280;66809;52.974;-2.514;2023-11-21T02:13:40;1011.9784539069711;;;6.802917387094228;46.966746165941416
46382;BME280;66809;52.974;-2.514;2023-11-21T02:15:40;1012.0028954202643;;;6.801519715265225;46.855521544075685
46382;BME280;66809;52.974;-2.514;2023-11-21T02:17:41;1012.0258257919578;;;6.799486496586919;46.737201425445086
46382;BME280;66809;52.974;-2.514;2023-11-21T02:19:40;1012.0467520245493;;;6.783984184394202;46.62644306651341
46382;BME280;66809;52.974;-2.514;2023-11-21T02:21:40;1012.0666090616298;;;6.794425667744478;46.52078172742164
46382;BME280;66809;52.974;-2.514;2023-11-21T02:23:40;1012.0832155980365;;;6.784343261319323;46.4141319665067
46382;BME280;66809;52.974;-2.514;2023-11-21T02:25:40;1012.0994244755194;;;6.795375845582026;46.30594925882474
46382;BME280;66809;52.974;-2.514;2023-11-21T02:27:40;1012.1156200072252;;;6.795263638198469;46.20965420997903
46382;BME280;66809;52.974;-2.514;2023-11-21T02:29:41;1012.132072356845;;;6.806680824384172;46.1305195665256
46382;BME280;66809;52.974;-2.514;2023-11-21T02:31:40;1012.1468212880661;;;6.8037971303005085;46.05293646541007
46382;BME280;66809;52.974;-2.514;2023-11-21T02:33:40;1012.1626951174655;;;6.787961709707031;45.98377819587349
46382;BME280;66809;52.974;-2.514;2023-11-21T02:35:41;1012.1787911092987;;;6.784887763872473;45.91240831339959
46382;BME280;66809;52.974;-2.514;2023-11-21T02:37:40;1012.1960339762844;;;6.7826345260377545;45.85578559131746
46382;BME280;66809;52.974;-2.514;2023-11-21T02:39:41;1012.2170673512811;;;6.777499471575175;45.81253716354576
46382;BME280;66809;52.974;-2.514;2023-11-21T02:41:41;1012.2400080652228;;;6.767566710714702;45.772589030739645
46382;BME280;66809;52.974;-2.514;2023-11-21T02:43:40;1012.2637315812551;;;6.782069232056516;45.722534878653875
46382;BME280;66809;52.974;-2.514;2023-11-21T02:45:41;1012.2871682648181;;;6.778205232844858;45.663693744971816
46382;BME280;66809;52.974;-2.514;2023-11-21T02:47:40;1012.3099439307857;;;6.788220151547174;45.60350471645126
46382;BME280;66809;52.974;-2.514;2023-11-21T02:49:40;1012.3346542905514;;;6.79567253156653;45.54463872331219
46382;BME280;66809;52.974;-2.514;2023-11-21T02:51:40;1012.3587121943856;;;6.806646332834486;45.49411504764097
46382;BME280;66809;52.974;-2.514;2023-11-21T02:53:40;1012.3820353971145;;;6.79909288841476;45.44244297027844
46382;BME280;66809;52.974;-2.514;2023-11-21T02:55:41;1012.4050030362508;;;6.804908821393264;45.38155085412231
46382;BME280;66809;52.974;-2.514;2023-11-21T02:57:40;1012.4278205496396;;;6.817568395489739;45.31859846097802
46382;BME280;66809;52.974;-2.514;2023-11-21T02:59:41;1012.4493173753795;;;6.830028233599902;45.265198686806784
46382;BME280;66809;52.974;-2.514;2023-11-21T03:01:40;1012.472720204905;;;6.845554684753806;45.20620214107295
46382;BME280;66809;52.974;-2.514;2023-11-21T03:03:40;1012.4975929281144;;;6.863500871333883;45.15713108099906
46382;BME280;66809;52.974;-2.514;2023-11-21T03:05:41;1012.5231194488174;;;6.894580084264702;45.08652941200391
46382;BME280;66809;52.974;-2.514;2023-11-21T03:07:40;1012.5482759593501;;;6.919349274300799;45.01902707742876
46382;BME280;66809;52.974;-2.514;2023-11-21T03:09:41;1012.5725506021939;;;6.951720955973486;44.93140190595076
46382;BME280;66809;52.974;-2.514;2023-11-21T03:11:40;1012.5979966825696;;;6.985354036615707;44.839147566445526
46382;BME280;66809;52.974;-2.514;2023-11-21T03:13:40;1012.6221389288627;;;6.999780671819918;44.73664935511385
46382;BME280;66809;52.974;-2.514;2023-11-21T03:15:40;1012.6466640863857;;;7.026098793224793;44.6456826680907
46382;BME280;66809;52.974;-2.514;2023-11-21T03:17:40;1012.6724178209039;;;7.055893327404104;44.558797837827086
46382;BME280;66809;52.974;-2.514;2023-11-21T03:19:42;1012.6997955973468;;;7.077732213354456;44.472890050392984
46382;BME280;66809;52.974;-2.514;2023-11-21T03:21:40;1012.7269815746605;;;7.082690890264606;44.38923371594348
46382;BME280;66809;52.974;-2.514;2023-11-21T03:23:40;1012.754444568696;;;7.091119756968404;44.31328529981226
46382;BME280;66809;52.974;-2.514;2023-11-21T03:25:41;1012.7806847438716;;;7.086573313359609;44.24207140804767
46382;BME280;66809;52.974;-2.514;2023-11-21T03:27:40;1012.8086125631668;;;7.082298709534645;44.17737006466864
46382;BME280;66809;52.974;-2.514;2023-11-21T03:29:40;1012.8362779320688;;;7.077693454920546;44.10381284288392
46382;BME280;66809;52.974;-2.514;2023-11-21T03:31:41;1012.8661463183795;;;7.071687313015817;44.03592705284027
46382;BME280;66809;52.974;-2.514;2023-11-21T03:33:40;1012.8963001985776;;;7.0750545285402975;43.98180045570609
46382;BME280;66809;52.974;-2.514;2023-11-21T03:35:40;1012.9274133497045;;;7.072290354954739;43.93145480120953
46382;BME280;66809;52.974;-2.514;2023-11-21T03:37:40;1012.9577219909805;;;7.07675976508076;43.86443879282517
46382;BME280;66809;52.974;-2.514;2023-11-21T03:39:40;1012.9867681195884;;;7.074225098525645;43.78649703119081
46382;BME280;66809;52.974;-2.514;2023-11-21T03:41:41;1013.0137679913983;;;7.0804022698846865;43.72553324749251
46382;BME280;66809;52.974;-2.514;2023-11-21T03:43:40;1013.0408931436884;;;7.07544523181918;43.66106006206561
46382;BME280;66809;52.974;-2.514;2023-11-21T03:45:40;1013.0693583616627;;;7.062481313914782;43.609853430678434
46382;BME280;66809;52.974;-2.514;2023-11-21T03:47:41;1013.1002638766305;;;7.039602529786932;43.56932545017308
46382;BME280;66809;52.974;-2.514;2023-11-21T03:49:40;1013.1290730267373;;;7.0183555570198335;43.543709478403066
46382;BME280;66809;52.974;-2.514;2023-11-21T03:51:41;1013.1569422057053;;;6.997241137306244;43.5167103140499
46382;BME280;66809;52.974;-2.514;2023-11-21T03:53:41;1013.1816825091588;;;6.957073472828407;43.50246672445203
46382;BME280;66809;52.974;-2.514;2023-11-21T03:55:40;1013.2057036127062;;;6.933006306009089;43.50087016770938
46382;BME280;66809;52.974;-2.514;2023-11-21T03:57:40;1013.2262372818793;;;6.891300455278289;43.509779808675916
46382;BME280;66809;52.974;-2.514;2023-11-21T03:59:41;1013.2442100593827;;;6.854885764138269;43.52509311752718
46382;BME280;66809;52.974;-2.514;2023-11-21T04:01:40;1013.2610618344812;;;6.823623263854249;43.54066957801827
46382;BME280;66809;52.974;-2.514;2023-11-21T04:03:40;1013.2800087813368;;;6.779729942397632;43.542173449149466
46382;BME280;66809;52.974;-2.514;2023-11-21T04:05:41;1013.2993635342316;;;6.723641084276259;43.559524787725465
46382;BME280;66809;52.974;-2.514;2023-11-21T04:07:40;1013.3202372460489;;;6.6728025481634;43.57401000760815
46382;BME280;66809;52.974;-2.514;2023-11-21T04:09:40;1013.3434620755542;;;6.615830714499751;43.6053763199795
46382;BME280;66809;52.974;-2.514;2023-11-21T04:11:41;1013.3670463932657;;;6.556295180877621;43.629220527950956
46382;BME280;66809;52.974;-2.514;2023-11-21T04:13:40;1013.3912789622174;;;6.52221618801045;43.663555923972346
46382;BME280;66809;52.974;-2.514;2023-11-21T04:15:40;1013.4162494067449;;;6.4875135356771665;43.692420546982625
46382;BME280;66809;52.974;-2.514;2023-11-21T04:17:41;1013.4409894257983;;;6.437177960989331;43.71633151640867
46382;BME280;66809;52.974;-2.514;2023-11-21T04:19:40;1013.4645094524429;;;6.397931858073975;43.735592426338805
46382;BME280;66809;52.974;-2.514;2023-11-21T04:21:41;1013.4879638032118;;;6.365575162259829;43.74537140516959
46382;BME280;66809;52.974;-2.514;2023-11-21T04:23:40;1013.5133856649315;;;6.343140971340618;43.74810596192807
46382;BME280;66809;52.974;-2.514;2023-11-21T04:25:40;1013.5401561411348;;;6.332157299404387;43.74614745332137
46382;BME280;66809;52.974;-2.514;2023-11-21T04:27:42;1013.5654325876837;;;6.326780559922062;43.73779348743668
46382;BME280;66809;52.974;-2.514;2023-11-21T04:29:40;1013.5925377112524;;;6.319443204769546;43.73235296083524
46382;BME280;66809;52.974;-2.514;2023-11-21T04:31:40;1013.6195251681077;;;6.305430267058143;43.73129389891265
46382;BME280;66809;52.974;-2.514;2023-11-21T04:33:41;1013.6457109898327;;;6.281746952282399;43.72163867641656
46382;BME280;66809;52.974;-2.514;2023-11-21T04:35:40;1013.6718435361305;;;6.250811847380366;43.71032480659089
46382;BME280;66809;52.974;-2.514;2023-11-21T04:37:41;1013.6976982472299;;;6.216365180723793;43.713199350009866
46382;BME280;66809;52.974;-2.514;2023-11-21T04:39:40;1013.7251421536533;;;6.19293972643786;43.733484355086595
46382;BME280;66809;52.974;-2.514;2023-11-21T04:41:40;1013.7540634031043;;;6.162202925954044;43.74214141156509
46382;BME280;66809;52.974;-2.514;2023-11-21T04:43:40;1013.7803977913293;;;6.10601707989952;43.763755200737236
46382;BME280;66809;52.974;-2.514;2023-11-21T04:45:40;1013.8056487006631;;;6.075412935004349;43.78751972732883
46382;BME280;66809;52.974;-2.514;2023-11-21T04:47:41;1013.827606273971;;;6.05576351678829;43.79718763948745
46382;BME280;66809;52.974;-2.514;2023-11-21T04:49:43;1013.8496435522627;;;6.01230560589513;43.82022438353734
46382;BME280;66809;52.974;-2.514;2023-11-21T04:51:40;1013.8731826928893;;;5.970007828554449;43.841969234507204
46382;BME280;66809;52.974;-2.514;2023-11-21T04:53:40;1013.9003727502169;;;5.958457690716126;43.85234390910704
46382;BME280;66809;52.974;-2.514;2023-11-21T04:55:40;1013.928440201821;;;5.934500156869202;43.85926980942829
46382;BME280;66809;52.974;-2.514;2023-11-21T04:57:41;1013.9601184813085;;;5.921314273197407;43.85913833566428
46382;BME280;66809;52.974;-2.514;2023-11-21T04:59:40;1013.9934946478891;;;5.915686195782658;43.841051256415604
46382;BME280;66809;52.974;-2.514;2023-11-21T05:01:41;1014.0268112912247;;;5.90616341339688;43.82804247908838
46382;BME280;66809;52.974;-2.514;2023-11-21T05:03:41;1014.0583966665127;;;5.897231754148632;43.812705099753614
46382;BME280;66809;52.974;-2.514;2023-11-21T05:05:40;1014.0893997157452;;;5.886484188621978;43.79700309763316
46382;BME280;66809;52.974;-2.514;2023-11-21T05:07:40;1014.1203310276945;;;5.882544888474854;43.78833433909463
46382;BME280;66809;52.974;-2.514;2023-11-21T05:09:41;1014.1499716919232;;;5.8711504052421155;43.774466700149894
46382;BME280;66809;52.974;-2.514;2023-11-21T05:11:40;1014.1781190997455;;;5.868745002702712;43.76922674840374
46382;BME280;66809;52.974;-2.514;2023-11-21T05:13:40;1014.2073230305244;;;5.847344125032673;43.77188875633159
46382;BME280;66809;52.974;-2.514;2023-11-21T05:15:40;1014.2363653052583;;;5.820480352037226;43.781275366641815
46382;BME280;66809;52.974;-2.514;2023-11-21T05:17:41;1014.2665653313128;;;5.816137739864379;43.79607714409745
46382;BME280;66809;52.974;-2.514;2023-11-21T05:19:40;1014.2948439461366;;;5.792231344529151;43.818287354194766
46382;BME280;66809;52.974;-2.514;2023-11-21T05:21:40;1014.3241629675945;;;5.774919550343877;43.84485584131731
46382;BME280;66809;52.974;-2.514;2023-11-21T05:23:41;1014.3511380298852;;;5.7583141494348276;43.87858170954636
46382;BME280;66809;52.974;-2.514;2023-11-21T05:25:40;1014.3780892730084;;;5.734343514951264;43.90605389010219
46382;BME280;66809;52.974;-2.514;2023-11-21T05:27:40;1014.4039190529617;;;5.710374620377654;43.933671754499684
46382;BME280;66809;52.974;-2.514;2023-11-21T05:29:40;1014.4282225294747;;;5.664784724757343;43.980861197754365
46382;BME280;66809;52.974;-2.514;2023-11-21T05:31:40;1014.4515964914972;;;5.639606025077535;44.0206681758515
46382;BME280;66809;52.974;-2.514;2023-11-21T05:33:41;1014.4744998505778;;;5.621435493692112;44.056600089677936
46382;BME280;66809;52.974;-2.514;2023-11-21T05:35:41;1014.4963114614552;;;5.605877884469974;44.09380464573255
46382;BME280;66809;52.974;-2.514;2023-11-21T05:37:40;1014.5173751654551;;;5.587489612510911;44.128805553393974
46382;BME280;66809;52.974;-2.514;2023-11-21T05:39:40;1014.5376858621091;;;5.568153769542703;44.15132283342266
46382;BME280;66809;52.974;-2.514;2023-11-21T05:41:41;1014.5589629768054;;;5.5626704220427445;44.174665821353074
46382;BME280;66809;52.974;-2.514;2023-11-21T05:43:40;1014.5836399973797;;;5.562680649273086;44.18409528763412
46382;BME280;66809;52.974;-2.514;2023-11-21T05:45:40;1014.608094701189;;;5.559263008360983;44.18516903060075
46382;BME280;66809;52.974;-2.514;2023-11-21T05:47:42;1014.6329137671996;;;5.546576534490143;44.1961432551242
46382;BME280;66809;52.974;-2.514;2023-11-21T05:49:40;1014.6590895492646;;;5.5535517192334485;44.186035339056694
46382;BME280;66809;52.974;-2.514;2023-11-21T05:51:40;1014.6849828729552;;;5.561886150729795;44.16669436571081
46382;BME280;66809;52.974;-2.514;2023-11-21T05:53:40;1014.7117239323611;;;5.5597305879088825;44.15325908063916
46382;BME280;66809;52.974;-2.514;2023-11-21T05:55:41;1014.7374501055946;;;5.551460443285801;44.139628242096386
46382;BME280;66809;52.974;-2.514;2023-11-21T05:57:41;1014.7632071328396;;;5.546169236377588;44.13196767214556
46382;BME280;66809;52.974;-2.514;2023-11-21T05:59:40;1014.7910462332794;;;5.550588507439872;44.137420700461846
46382;BME280;66809;52.974;-2.514;2023-11-21T06:01:40;1014.82010027171;;;5.5374501605943705;44.13805335068948
46382;BME280;66809;52.974;-2.514;2023-11-21T06:03:41;1014.8503024712312;;;5.542270879687374;44.14290103785855
46382;BME280;66809;52.974;-2.514;2023-11-21T06:05:40;1014.8805526812156;;;5.539513313539291;44.15061577887225
46382;BME280;66809;52.974;-2.514;2023-11-21T06:07:40;1014.9108448131879;;;5.538498538216357;44.14540223951007
46382;BME280;66809;52.974;-2.514;2023-11-21T06:09:41;1014.9423411849148;;;5.540372107672186;44.137947751137425
46382;BME280;66809;52.974;-2.514;2023-11-21T06:11:40;1014.9757306127242;;;5.535553224361218;44.13370645783001
46382;BME280;66809;52.974;-2.514;2023-11-21T06:13:41;1015.0095832569508;;;5.548590752228955;44.127356125902196
46382;BME280;66809;52.974;-2.514;2023-11-21T06:15:40;1015.0434423561888;;;5.546773066947432;44.110466880054034
46382;BME280;66809;52.974;-2.514;2023-11-21T06:17:41;1015.0747037848903;;;5.533470344602642;44.10126370022894
46382;BME280;66809;52.974;-2.514;2023-11-21T06:19:40;1015.1083279015339;;;5.53127276337282;44.0982088418689
46382;BME280;66809;52.974;-2.514;2023-11-21T06:21:40;1015.1425510556395;;;5.517717990835925;44.09792288189871
46382;BME280;66809;52.974;-2.514;2023-11-21T06:23:41;1015.1780293906246;;;5.510570017777619;44.099169141089675
46382;BME280;66809;52.974;-2.514;2023-11-21T06:25:40;1015.2128457960539;;;5.52305485910134;44.10282888265143
46382;BME280;66809;52.974;-2.514;2023-11-21T06:27:42;1015.2484671532676;;;5.5128355339880795;44.11922836255212
46382;BME280;66809;52.974;-2.514;2023-11-21T06:29:40;1015.2835767252722;;;5.531986477685515;44.1111733553117
46382;BME280;66809;52.974;-2.514;2023-11-21T06:31:40;1015.3184770533626;;;5.542031909047798;44.09736530329226
46382;BME280;66809;52.974;-2.514;2023-11-21T06:33:41;1015.352837533081;;;5.551382913915038;44.10362560801205
46382;BME280;66809;52.974;-2.514;2023-11-21T06:35:40;1015.3863188186945;;;5.56382097220953;44.10473321467438
46382;BME280;66809;52.974;-2.514;2023-11-21T06:37:40;1015.4192555664703;;;5.571957387294828;44.101262082315316
46382;BME280;66809;52.974;-2.514;2023-11-21T06:39:40;1015.4504029400704;;;5.589550412949996;44.098367307836526
46382;BME280;66809;52.974;-2.514;2023-11-21T06:41:40;1015.4797800936781;;;5.591679670039022;44.100864068432855
46382;BME280;66809;52.974;-2.514;2023-11-21T06:43:41;1015.5082893118149;;;5.593047312102353;44.11160114018003
46382;BME280;66809;52.974;-2.514;2023-11-21T06:45:40;1015.5368542428863;;;5.596002863564318;44.12748625699351
46382;BME280;66809;52.974;-2.514;2023-11-21T06:47:40;1015.5672503126809;;;5.604601404370797;44.132636801875826
46382;BME280;66809;52.974;-2.514;2023-11-21T06:49:42;1015.5967195856368;;;5.613807787606289;44.14012739299434
46382;BME280;66809;52.974;-2.514;2023-11-21T06:51:40;1015.6257826553875;;;5.6157737758289645;44.159434991907574
46382;BME280;66809;52.974;-2.514;2023-11-21T06:53:40;1015.6530391374721;;;5.616059432086737;44.17456390866367
46382;BME280;66809;52.974;-2.514;2023-11-21T06:55:40;1015.6827245538664;;;5.633289389003557;44.187140563471054
46382;BME280;66809;52.974;-2.514;2023-11-21T06:57:41;1015.7121605735908;;;5.662844597870071;44.187665039036055
46382;BME280;66809;52.974;-2.514;2023-11-21T06:59:40;1015.7405071046884;;;5.664448281640671;44.17293642029817
46382;BME280;66809;52.974;-2.514;2023-11-21T07:01:40;1015.7673649664076;;;5.688949380140765;44.15678898188401
46382;BME280;66809;52.974;-2.514;2023-11-21T07:03:41;1015.7932946918864;;;5.706302519592791;44.131891905179515
46382;BME280;66809;52.974;-2.514;2023-11-21T07:05:40;1015.821388258822;;;5.735107131061848;44.10326745536192
46382;BME280;66809;52.974;-2.514;2023-11-21T07:07:40;1015.8502155119651;;;5.75532707354293;44.0760817916226
46382;BME280;66809;52.974;-2.514;2023-11-21T07:09:41;1015.8777132380488;;;5.784533139208807;44.05092554335805
46382;BME280;66809;52.974;-2.514;2023-11-21T07:11:40;1015.9066798361132;;;5.815350522205816;44.02525785268355